Flight Track Log - Related Links

Times and Time Zones

All times are in EDT time to prevent confusion due to time zone crossing. See the SWA2975 flight status page for this flight to view local times or setup timezone preferences in your user account.

Time Position Orientation Groundspeed Altitude Reporting Facility
EDT Latitude Longitude Course Direction KTS MPH feet Rate Location/Type
Mon 11:26:26 PM 41.7980 -87.7320 74° East 136 157 2,000  Level FlightAware ADS-B
Mon 11:26:33 PM 41.7980 -87.7270 90° East 144 166 2,200 1,256 Climbing FlightAware ADS-B
Mon 11:27:09 PM 41.7980 -87.6890 90° East 197 227 2,900 1,524 Climbing FlightAware ADS-B
Mon 11:27:36 PM 41.7990 -87.6500 88° East 235 270 3,800 2,760 Climbing FlightAware ADS-B
Mon 11:27:59 PM 41.7990 -87.6160 90° East 240 276 5,200 3,444 Climbing FlightAware ADS-B
Mon 11:28:30 PM 41.7980 -87.5690 92° East 251 289 6,900 3,111 Climbing FlightAware ADS-B
Mon 11:28:53 PM 41.7980 -87.5360 90° East 256 295 8,000 2,914 Climbing FlightAware ADS-B
Mon 11:29:05 PM 41.7970 -87.5170 94° East 259 298 8,600 3,222 Climbing FlightAware ADS-B
Mon 11:29:47 PM 41.7950 -87.4470 92° East 271 312 10,900 2,747 Climbing FlightAware ADS-B
Mon 11:30:28 PM 41.7880 -87.3740 97° East 304 350 12,400 1,923 Climbing FlightAware ADS-B
Mon 11:31:05 PM 41.7820 -87.3030 96° East 338 389 13,400 2,074 Climbing FlightAware ADS-B
Mon 11:31:49 PM 41.7740 -87.2060 96° East 361 415 15,200 2,444 Climbing FlightAware ADS-B
Mon 11:32:26 PM 41.7670 -87.1210 96° East 374 430 16,700 2,475 Climbing FlightAware ADS-B
Mon 11:33:09 PM 41.7620 -87.0210 94° East 383 441 18,500 2,427 Climbing FlightAware ADS-B
Mon 11:33:55 PM 41.7640 -86.9100 89° East 394 453 20,300 2,222 Climbing FlightAware ADS-B
Mon 11:34:30 PM 41.7650 -86.8250 89° East 403 464 21,500 2,049 Climbing FlightAware ADS-B
Mon 11:35:17 PM 41.7660 -86.7050 89° East 414 476 23,100 2,024 Climbing FlightAware ADS-B
Mon 11:35:53 PM 41.7660 -86.6130 90° East 418 481 24,300 1,816 Climbing FlightAware ADS-B
Mon 11:36:33 PM 41.7670 -86.5090 89° East 427 491 25,400 1,880 Climbing FlightAware ADS-B
Mon 11:37:16 PM 41.7680 -86.3950 89° East 425 489 26,900 1,929 Climbing FlightAware ADS-B
Mon 11:37:57 PM 41.7730 -86.2920 86° East 426 490 28,100 1,537 Climbing FlightAware ADS-B
Mon 11:38:38 PM 41.7820 -86.1810 84° East 431 496 29,000 635 Climbing FlightAware ADS-B
Mon 11:39:22 PM 41.7850 -86.0600 88° East 451 519 29,000  Level FlightAware ADS-B
Mon 11:40:02 PM 41.7950 -85.9460 83° East 455 524 29,000  Level FlightAware ADS-B
Mon 11:40:39 PM 41.8040 -85.8450 83° East 456 525 29,000  Level FlightAware ADS-B
Mon 11:41:21 PM 41.8150 -85.7260 83° East 456 525 29,000  Level FlightAware ADS-B
Mon 11:42:03 PM 41.8250 -85.6090 83° East 454 522 29,000  Level FlightAware ADS-B
Mon 11:42:43 PM 41.8340 -85.4990 84° East 453 521 29,000  Level FlightAware ADS-B
Mon 11:43:20 PM 41.8440 -85.3920 83° East 453 521 29,000  Level FlightAware ADS-B
Mon 11:44:00 PM 41.8530 -85.2820 84° East 453 521 29,000  Level FlightAware ADS-B
Mon 11:44:41 PM 41.8610 -85.1750 84° East 453 521 29,000  Level FlightAware ADS-B
Mon 11:45:25 PM 41.8710 -85.0500 84° East 452 520 29,000 -565 Level FlightAware ADS-B
Mon 11:46:06 PM 41.8800 -84.9420 84° East 442 509 28,200 -1,111 Descending FlightAware ADS-B
Mon 11:46:46 PM 41.8890 -84.8270 84° East 431 496 27,500 -1,500 Descending FlightAware ADS-B
Mon 11:47:30 PM 41.8980 -84.7090 84° East 427 491 26,100 -1,724 Descending FlightAware ADS-B
Mon 11:48:13 PM 41.9060 -84.5970 84° East 419 482 25,000 -805 Descending FlightAware ADS-B
Mon 11:48:52 PM 41.9170 -84.5030 81° East 419 482 25,000  Level FlightAware ADS-B
Mon 11:49:53 PM 41.9350 -84.3450 81° East 419 482 25,000  Level FlightAware ADS-B
Mon 11:50:32 PM 41.9470 -84.2440 81° East 418 481 25,000  Level FlightAware ADS-B
Mon 11:51:18 PM 41.9600 -84.1260 82° East 427 491 25,000  Level FlightAware ADS-B
Mon 11:51:52 PM 41.9700 -84.0360 81° East 437 503 25,000  Level FlightAware ADS-B
Mon 11:52:32 PM 41.9820 -83.9280 81° East 436 502 25,000  Level FlightAware ADS-B
Mon 11:53:15 PM 41.9950 -83.8110 81° East 437 503 25,000  Level FlightAware ADS-B
Mon 11:53:56 PM 42.0080 -83.7010 81° East 437 503 25,000  Level FlightAware ADS-B
Mon 11:54:40 PM 42.0200 -83.5830 82° East 438 504 25,000  Level FlightAware ADS-B
Mon 11:55:20 PM 42.0320 -83.4750 81° East 441 507 25,000  Level FlightAware ADS-B
Mon 11:56:02 PM 42.0440 -83.3620 82° East 443 510 25,000  Level FlightAware ADS-B
Mon 11:56:42 PM 42.0560 -83.2540 81° East 431 496 25,000  Level FlightAware ADS-B
Mon 11:57:18 PM 42.0660 -83.1570 82° East 429 494 25,000  Level FlightAware ADS-B
Mon 11:58:02 PM 42.0780 -83.0420 82° East 427 491 25,000  Level FlightAware ADS-B
Mon 11:58:42 PM 42.0890 -82.9380 82° East 426 490 25,000  Level FlightAware ADS-B
Mon 11:59:19 PM 42.0990 -82.8380 82° East 426 490 25,000  Level FlightAware ADS-B
Tue 12:00:00 AM 42.1100 -82.7320 82° East 425 489 25,000  Level FlightAware ADS-B
Tue 12:00:37 AM 42.1190 -82.6340 83° East 424 488 25,000  Level FlightAware ADS-B
Tue 12:01:27 AM 42.1320 -82.5030 82° East 419 482 25,000  Level FlightAware ADS-B
Tue 12:02:06 AM 42.1420 -82.4040 82° East 418 481 25,000  Level FlightAware ADS-B
Tue 12:02:48 AM 42.1520 -82.2970 83° East 420 483 25,000  Level FlightAware ADS-B
Tue 12:03:32 AM 42.1640 -82.1810 82° East 421 484 25,000  Level FlightAware ADS-B
Tue 12:04:13 AM 42.1740 -82.0740 83° East 420 483 25,000  Level FlightAware ADS-B
Tue 12:04:57 AM 42.1840 -81.9610 83° East 420 483 25,000  Level FlightAware ADS-B
Tue 12:05:35 AM 42.1940 -81.8610 82° East 419 482 25,000  Level FlightAware ADS-B
Tue 12:06:19 AM 42.2050 -81.7460 83° East 419 482 25,000  Level FlightAware ADS-B
Tue 12:07:03 AM 42.2150 -81.6300 83° East 425 489 25,000  Level FlightAware ADS-B
Tue 12:07:42 AM 42.2240 -81.5310 83° East 425 489 25,000  Level FlightAware ADS-B
Tue 12:08:23 AM 42.2340 -81.4220 83° East 426 490 25,000  Level FlightAware ADS-B
Tue 12:09:05 AM 42.2440 -81.3130 83° East 426 490 25,000  Level FlightAware ADS-B
Tue 12:09:47 AM 42.2530 -81.2020 84° East 427 491 25,000  Level FlightAware ADS-B
Tue 12:10:28 AM 42.2620 -81.0930 84° East 428 493 25,000  Level FlightAware ADS-B
Tue 12:11:19 AM 42.2720 -80.9820 83° East 429 494 25,000  Level FlightAware ADS-B
Tue 12:12:02 AM 42.2810 -80.8730 84° East 430 495 25,000  Level FlightAware ADS-B
Tue 12:12:39 AM 42.2900 -80.7680 83° East 427 491 25,000  Level FlightAware ADS-B
Tue 12:13:14 AM 42.2980 -80.6680 84° East 427 491 25,000  Level FlightAware ADS-B
Tue 12:13:55 AM 42.3070 -80.5670 83° East 426 490 25,000  Level FlightAware ADS-B
Tue 12:14:35 AM 42.3160 -80.4560 84° East 428 493 25,000  Level FlightAware ADS-B
Tue 12:15:22 AM 42.3250 -80.3330 84° East 433 498 25,000  Level FlightAware ADS-B
Tue 12:16:03 AM 42.3340 -80.2240 84° East 434 499 25,000  Level FlightAware ADS-B
Tue 12:16:48 AM 42.3440 -80.1000 84° East 436 502 25,000  Level FlightAware ADS-B
Tue 12:17:31 AM 42.3520 -79.9880 84° East 437 503 25,000  Level FlightAware ADS-B
Tue 12:18:04 AM 42.3590 -79.8980 84° East 438 504 25,000  Level FlightAware ADS-B
Tue 12:18:47 AM 42.3670 -79.7870 84° East 439 505 25,000  Level FlightAware ADS-B
Tue 12:19:29 AM 42.3770 -79.6610 84° East 440 506 25,000  Level FlightAware ADS-B
Tue 12:20:05 AM 42.3830 -79.5730 85° East 440 506 25,000  Level FlightAware ADS-B
Tue 12:20:46 AM 42.3940 -79.4280 84° East 441 507 25,000  Level FlightAware ADS-B
Tue 12:21:28 AM 42.4010 -79.3150 85° East 443 510 25,000  Level FlightAware ADS-B
Tue 12:22:12 AM 42.4100 -79.1940 84° East 445 512 25,000  Level FlightAware ADS-B
Tue 12:22:54 AM 42.4180 -79.0750 85° East 447 514 25,000  Level FlightAware ADS-B
Tue 12:23:34 AM 42.4260 -78.9630 84° East 448 516 25,000  Level FlightAware ADS-B
Tue 12:24:18 AM 42.4340 -78.8410 85° East 448 516 25,000  Level FlightAware ADS-B
Tue 12:24:48 AM 42.4390 -78.7570 85° East 445 512 25,000  Level FlightAware ADS-B
Tue 12:25:35 AM 42.4480 -78.6280 85° East 444 511 25,000  Level FlightAware ADS-B
Tue 12:26:15 AM 42.4550 -78.5170 85° East 444 511 25,000  Level FlightAware ADS-B
Tue 12:26:49 AM 42.4610 -78.4230 85° East 445 512 25,000  Level FlightAware ADS-B
Tue 12:27:35 AM 42.4690 -78.2980 85° East 444 511 25,000  Level FlightAware ADS-B
Tue 12:28:15 AM 42.4750 -78.1880 86° East 444 511 25,000  Level FlightAware ADS-B
Tue 12:28:51 AM 42.4810 -78.0880 85° East 443 510 25,000  Level FlightAware ADS-B
Tue 12:29:38 AM 42.4890 -77.9560 85° East 443 510 25,000  Level FlightAware ADS-B
Tue 12:30:20 AM 42.4960 -77.8400 85° East 441 507 25,000  Level FlightAware ADS-B
Tue 12:31:02 AM 42.5020 -77.7240 86° East 437 503 25,000  Level FlightAware ADS-B
Tue 12:31:41 AM 42.5080 -77.6200 85° East 432 497 25,000  Level FlightAware ADS-B
Tue 12:32:17 AM 42.5140 -77.5230 85° East 431 496 25,000  Level FlightAware ADS-B
Tue 12:33:03 AM 42.5200 -77.3990 86° East 429 494 25,000  Level FlightAware ADS-B
Tue 12:33:41 AM 42.5250 -77.2970 86° East 433 498 25,000  Level FlightAware ADS-B
Tue 12:34:19 AM 42.5310 -77.1940 85° East 435 501 25,000  Level FlightAware ADS-B
Tue 12:35:03 AM 42.5370 -77.0740 86° East 436 502 25,000  Level FlightAware ADS-B
Tue 12:35:39 AM 42.5420 -76.9760 86° East 436 502 25,000  Level FlightAware ADS-B
Tue 12:36:21 AM 42.5470 -76.8620 87° East 435 501 25,000  Level FlightAware ADS-B
Tue 12:37:06 AM 42.5530 -76.7410 86° East 435 501 25,000  Level FlightAware ADS-B
Tue 12:37:51 AM 42.5590 -76.6170 86° East 438 504 25,000  Level FlightAware ADS-B
Tue 12:38:31 AM 42.5640 -76.5070 86° East 439 505 25,000  Level FlightAware ADS-B
Tue 12:39:13 AM 42.5690 -76.3920 87° East 439 505 25,000  Level FlightAware ADS-B
Tue 12:39:53 AM 42.5740 -76.2820 86° East 440 506 25,000  Level FlightAware ADS-B
Tue 12:40:37 AM 42.5790 -76.1590 87° East 441 507 25,000  Level FlightAware ADS-B
Tue 12:41:17 AM 42.5840 -76.0500 86° East 442 509 25,000  Level FlightAware ADS-B
Tue 12:42:01 AM 42.5890 -75.9280 87° East 443 510 25,000  Level FlightAware ADS-B
Tue 12:42:41 AM 42.5940 -75.8170 86° East 444 511 25,000 -158 Level FlightAware ADS-B
Tue 12:43:17 AM 42.5970 -75.7170 88° East 440 506 24,800 -1,275 Descending FlightAware ADS-B
Tue 12:44:01 AM 42.6020 -75.5960 87° East 430 495 23,300 -2,025 Descending FlightAware ADS-B
Tue 12:44:37 AM 42.6060 -75.5010 87° East 423 487 22,100 -2,000 Descending FlightAware ADS-B
Tue 12:45:37 AM 42.6060 -75.3460 90° East 404 465 20,100 -1,886 Descending FlightAware ADS-B
Tue 12:46:22 AM 42.5990 -75.2350 95° East 393 452 18,800 -1,800 Descending FlightAware ADS-B
Tue 12:46:57 AM 42.5900 -75.1520 98° East 388 447 17,700 -2,026 Descending FlightAware ADS-B
Tue 12:47:39 AM 42.5890 -75.0480 91° East 394 453 16,200 -2,027 Descending FlightAware ADS-B
Tue 12:48:11 AM 42.5930 -74.9700 86° East 391 450 15,200 -1,902 Descending FlightAware ADS-B
Tue 12:49:01 AM 42.6000 -74.8490 85° East 385 443 13,600 -1,103 Descending FlightAware ADS-B
Tue 12:49:38 AM 42.6050 -74.7730 85° East 385 443 13,600  Level FlightAware ADS-B
Tue 12:50:14 AM 42.6100 -74.6990 85° East 385 443 13,600  Level FlightAware ADS-B
Tue 12:51:00 AM 42.6160 -74.6050 85° East 385 443 13,600 -1,925 Level FlightAware ADS-B
Tue 12:52:00 AM 42.6200 -74.4575 85° East 312 359 10,200 -2,297 Descending Boston Center
Tue 12:53:08 AM 42.6097 -74.3303 96° East 304 350 8,700 -1,339 Descending Boston Center
Tue 12:54:01 AM 42.6008 -74.2369 97° East 296 341 7,500 -1,421 Descending Boston Center
Tue 12:55:02 AM 42.5881 -74.1292 99° East 288 331 6,000 -1,289 Descending Boston Center
Tue 12:56:02 AM 42.5769 -74.0161 98° East 279 321 4,900 -992 Descending Boston Center
Tue 12:57:03 AM 42.5678 -73.9258 98° East 235 270 4,000 -942 Descending Boston Center
Tue 12:58:03 AM 42.5708 -73.8442 87° East 217 250 3,000 -992 Descending Boston Center
Tue 12:59:04 AM 42.6256 -73.8142 22° Northeast 222 255 2,000 -787 Descending Boston Center
Tue 01:00:05 AM 42.6778 -73.8042 North 190 219 1,400 -744 Descending Boston Center
Tue 01:01:05 AM 42.7278 -73.8081 357° North 162 186 500 -900 Descending Boston Center

Login

Don't have an account? Register now (free) for customized features, flight alerts, and more!